Time;durP1;ratioP1;P1;durP2;ratioP2;P2;SDS_P1;SDS_P2;PMS_P1;PMS_P2;Temp;Humidity;BMP_temperature;BMP_pressure;BME280_temperature;BME280_humidity;BME280_pressure;Samples;Min_cycle;Max_cycle;Signal;HPM_P1;HPM_P2
2021/01/16 00:47:56;;;;;;;38.02;16.52;;;;;;;-1.57;55.34;100330.48;2376775;79;26588;-81
2021/01/16 05:18:37;;;;;;;40.43;16.77;;;;;;;-1.52;55.43;100278.02;2381009;81;25717;-82
2021/01/16 05:37:05;;;;;;;35.08;16.65;;;;;;;-1.58;55.41;100283.09;2325713;80;25500;-82
2021/01/16 05:40:30;;;;;;;30.45;15.63;;;;;;;-1.59;55.42;100282.57;2281218;85;25835;-82
2021/01/16 05:55:40;;;;;;;29.13;14.53;;;;;;;-1.61;55.42;100277.77;2382415;79;34703;-80
2021/01/16 05:59:04;;;;;;;33.70;16.20;;;;;;;-1.68;55.43;100272.61;2338003;83;25621;-81
2021/01/16 06:34:43;;;;;;;30.75;14.87;;;;;;;-1.67;55.42;100247.14;2311984;84;25750;-81
2021/01/16 07:01:17;;;;;;;24.92;13.98;;;;;;;-1.42;55.28;100225.82;2307933;83;25871;-82
2021/01/16 07:04:43;;;;;;;25.77;13.18;;;;;;;-1.38;55.23;100231.66;2317271;84;25690;-82
2021/01/16 07:08:05;;;;;;;24.27;12.75;;;;;;;-1.33;55.20;100225.58;2318354;82;25767;-83
2021/01/16 07:21:41;;;;;;;23.57;11.83;;;;;;;-1.16;55.09;100212.64;2306914;84;25719;-83
2021/01/16 07:44:15;;;;;;;22.02;12.05;;;;;;;-0.77;54.77;100192.27;2239419;87;25836;-81
2021/01/16 07:59:39;;;;;;;24.40;12.27;;;;;;;-0.20;54.35;100161.33;2524704;76;34767;-83
2021/01/16 08:08:26;;;;;;;27.42;14.13;;;;;;;0.05;54.10;100159.88;2478244;79;25643;-84
2021/01/16 08:22:37;;;;;;;30.52;17.12;;;;;;;0.49;53.64;100151.44;2478830;79;25689;-81
2021/01/16 08:30:39;;;;;;;36.93;16.85;;;;;;;0.73;53.41;100145.59;2501143;78;25740;-81
2021/01/16 08:34:53;;;;;;;33.78;18.20;;;;;;;0.82;53.29;100146.13;2476879;78;25223;-81
2021/01/16 08:38:40;;;;;;;33.43;16.57;;;;;;;0.91;53.16;100141.55;2584074;75;34564;-79
2021/01/16 08:42:05;;;;;;;30.05;16.50;;;;;;;0.89;53.15;100145.69;2555884;77;25906;-78
2021/01/16 08:45:48;;;;;;;31.75;17.77;;;;;;;0.91;53.11;100138.98;2553261;77;25658;-79
2021/01/16 08:49:17;;;;;;;32.35;17.82;;;;;;;0.96;53.09;100138.35;2423136;80;25632;-81
2021/01/16 08:52:46;;;;;;;33.90;17.57;;;;;;;0.99;53.03;100134.68;2457490;80;25649;-79
2021/01/16 08:56:21;;;;;;;36.93;19.40;;;;;;;1.02;53.03;100138.31;2460085;79;25632;-79
2021/01/16 08:59:50;;;;;;;30.90;16.17;;;;;;;1.05;53.02;100126.06;2485133;78;25746;-79
2021/01/16 09:03:19;;;;;;;30.50;16.42;;;;;;;1.07;52.96;100129.17;2439220;80;25909;-79
2021/01/16 09:06:52;;;;;;;30.27;16.60;;;;;;;1.06;53.00;100126.13;2452234;79;25711;-79
2021/01/16 09:10:47;;;;;;;32.10;16.00;;;;;;;1.08;52.98;100110.80;2430314;81;26080;-78
2021/01/16 09:14:08;;;;;;;28.62;16.77;;;;;;;1.10;52.98;100111.78;2430788;81;25745;-78
2021/01/16 09:17:29;;;;;;;34.38;17.77;;;;;;;1.12;52.97;100107.63;2438950;80;25760;-79
2021/01/16 09:21:12;;;;;;;33.75;17.45;;;;;;;1.15;53.00;100100.98;2415897;80;25743;-78
2021/01/16 09:24:48;;;;;;;32.17;17.52;;;;;;;1.21;53.01;100100.42;2405803;80;25651;-78
2021/01/16 09:32:49;;;;;;;33.67;16.23;;;;;;;1.25;53.04;100092.13;2407764;80;26177;-79
2021/01/16 09:36:11;;;;;;;34.18;17.55;;;;;;;1.29;53.08;100075.20;2430392;80;26109;-77
2021/01/16 09:39:37;;;;;;;29.35;16.50;;;;;;;1.34;53.12;100070.78;2437704;80;25637;-78
2021/01/16 09:43:26;;;;;;;28.10;15.98;;;;;;;1.42;53.10;100064.80;2432057;81;25686;-78
2021/01/16 09:46:47;;;;;;;33.83;16.47;;;;;;;1.54;53.13;100056.86;2411118;79;25835;-78
2021/01/16 09:50:54;;;;;;;29.77;16.27;;;;;;;1.67;53.07;100050.30;2489921;79;26279;-78
2021/01/16 09:54:16;;;;;;;31.00;14.78;;;;;;;1.75;53.03;100034.88;2485593;78;25664;-79
2021/01/16 09:57:45;;;;;;;28.75;15.28;;;;;;;1.85;53.05;100029.82;2488816;79;25573;-79
2021/01/16 10:01:43;;;;;;;26.50;13.72;;;;;;;1.89;53.01;100027.52;2329663;81;25802;-81
2021/01/16 10:05:42;;;;;;;28.35;15.35;;;;;;;1.96;53.02;100011.09;2329539;84;25789;-77
2021/01/16 10:09:48;;;;;;;25.37;14.90;;;;;;;2.03;52.95;100008.95;2332091;81;25739;-79
2021/01/16 10:13:16;;;;;;;24.75;15.23;;;;;;;2.05;52.88;99992.30;2310642;84;25692;-79
2021/01/16 10:16:48;;;;;;;29.45;14.23;;;;;;;2.02;52.81;99994.70;2347513;82;25927;-79
2021/01/16 10:20:16;;;;;;;23.98;13.70;;;;;;;1.98;52.84;99982.10;2478992;79;25876;-88
2021/01/16 10:23:52;;;;;;;23.07;13.55;;;;;;;1.97;52.86;99971.34;2485582;79;25834;-77
2021/01/16 10:27:25;;;;;;;24.32;14.23;;;;;;;1.98;52.86;99956.80;2484474;79;25673;-78
2021/01/16 10:31:04;;;;;;;24.43;14.50;;;;;;;1.98;52.87;99961.94;2487758;79;25916;-79
2021/01/16 10:35:00;;;;;;;20.83;13.80;;;;;;;2.01;52.91;99952.70;2560407;75;25473;-78
2021/01/16 10:39:04;;;;;;;;;;;;;;;;;;;;;
2021/01/16 10:43:22;;;;;;;23.15;14.15;;;;;;;1.93;53.04;99940.28;2516351;77;25686;-79
2021/01/16 10:47:31;;;;;;;23.73;15.43;;;;;;;1.90;53.14;99928.14;2459804;78;35043;-79
2021/01/16 10:51:17;;;;;;;27.95;17.52;;;;;;;1.78;53.29;99927.10;2405534;81;25983;-78
2021/01/16 10:54:38;;;;;;;26.85;16.27;;;;;;;1.73;53.37;99917.00;2296100;82;25778;-77
2021/01/16 10:58:24;;;;;;;30.40;16.55;;;;;;;1.67;53.45;99909.38;2300881;84;25593;-77
2021/01/16 11:01:52;;;;;;;28.75;16.55;;;;;;;1.63;53.58;99905.78;2301120;86;26333;-78
2021/01/16 11:05:31;;;;;;;37.78;18.37;;;;;;;1.59;53.70;99903.45;2301004;84;29057;-78
2021/01/16 11:09:01;;;;;;;27.87;15.63;;;;;;;1.53;53.81;99892.86;2276181;84;25761;-78
2021/01/16 11:13:24;;;;;;;25.17;16.53;;;;;;;1.53;53.99;99875.28;2547569;77;34687;-78
2021/01/16 11:16:46;;;;;;;31.48;16.70;;;;;;;1.44;54.13;99867.09;2544084;77;25679;-77
2021/01/16 11:25:11;;;;;;;30.17;16.67;;;;;;;1.40;54.40;99848.95;2491374;79;25459;-80
2021/01/16 11:28:54;;;;;;;25.95;17.50;;;;;;;1.42;54.54;99841.34;2498959;78;25733;-78
2021/01/16 11:32:19;;;;;;;23.27;15.65;;;;;;;1.43;54.73;99835.80;2499642;78;25532;-78
2021/01/16 11:35:49;;;;;;;29.10;15.80;;;;;;;1.43;54.83;99827.69;2498407;78;25623;-78
2021/01/16 11:39:16;;;;;;;25.15;15.15;;;;;;;1.43;54.96;99802.41;2486315;79;25714;-78
2021/01/16 11:43:09;;;;;;;26.68;14.80;;;;;;;1.44;55.07;99799.03;2487659;79;25546;-80
2021/01/16 11:46:49;;;;;;;23.20;15.48;;;;;;;1.47;55.21;99795.34;2494738;78;25673;-80
2021/01/16 11:50:10;;;;;;;24.85;14.18;;;;;;;1.51;55.30;99781.83;2468660;79;25772;-80
2021/01/16 12:17:54;;;;;;;19.32;11.63;;;;;;;2.15;55.66;99716.82;2539363;77;25474;-78
2021/01/16 12:21:16;;;;;;;15.80;10.98;;;;;;;2.27;55.62;99714.83;2513705;77;25663;-78
2021/01/16 12:40:17;;;;;;;16.00;8.50;;;;;;;2.42;55.87;99655.88;2477896;78;31706;-82
2021/01/16 12:43:39;;;;;;;10.32;7.90;;;;;;;2.34;55.90;99655.55;2429608;80;26142;-81
2021/01/16 12:47:02;;;;;;;9.63;7.40;;;;;;;2.33;55.92;99648.65;2404957;80;25766;-79
2021/01/16 12:50:32;;;;;;;10.53;7.62;;;;;;;2.32;55.98;99636.16;2423889;80;26039;-90
2021/01/16 12:53:53;;;;;;;8.10;6.85;;;;;;;2.32;55.99;99629.73;2405221;79;25833;-87
2021/01/16 12:57:17;;;;;;;8.58;6.78;;;;;;;2.34;56.01;99624.67;2404028;80;25609;-79
2021/01/16 13:01:14;;;;;;;9.07;6.33;;;;;;;2.39;56.05;99618.44;2569596;75;26112;-78
2021/01/16 13:04:43;;;;;;;8.48;6.10;;;;;;;2.34;56.12;99619.53;2530804;76;25522;-78
2021/01/16 13:08:14;;;;;;;10.10;7.10;;;;;;;2.35;56.18;99616.14;2440789;78;25643;-79
2021/01/16 13:11:50;;;;;;;6.97;6.08;;;;;;;2.35;56.22;99602.87;2489888;78;26104;-77
2021/01/16 13:15:12;;;;;;;8.58;6.47;;;;;;;2.34;56.23;99597.26;2507937;78;25895;-78
2021/01/16 13:18:34;;;;;;;9.15;6.00;;;;;;;2.33;56.32;99594.63;2465136;78;26256;-78
2021/01/16 13:22:03;;;;;;;8.90;6.60;;;;;;;2.33;56.31;99580.48;2437062;78;25728;-80
2021/01/16 13:25:36;;;;;;;6.62;5.70;;;;;;;2.32;56.31;99583.85;2415358;80;25782;-78
2021/01/16 13:29:06;;;;;;;9.68;6.08;;;;;;;2.31;56.35;99579.12;2417367;80;26169;-78
2021/01/16 13:32:46;;;;;;;6.42;5.67;;;;;;;2.29;56.36;99580.73;2401794;81;26157;-90
2021/01/16 13:36:16;;;;;;;8.13;5.65;;;;;;;2.27;56.39;99578.52;2406876;80;26458;-78
2021/01/16 13:39:39;;;;;;;9.38;6.45;;;;;;;2.25;56.41;99572.42;2350705;82;25837;-77
2021/01/16 13:43:05;;;;;;;6.28;5.28;;;;;;;2.21;56.48;99568.37;2375007;82;25759;-78
2021/01/16 13:46:40;;;;;;;7.22;5.67;;;;;;;2.16;56.58;99560.47;2358749;82;25849;-78
2021/01/16 13:50:16;;;;;;;5.17;4.50;;;;;;;2.12;56.65;99545.69;2362790;82;26009;-79
2021/01/16 13:53:45;;;;;;;10.05;5.42;;;;;;;2.07;56.73;99551.06;2373814;78;25550;-78
2021/01/16 13:57:41;;;;;;;7.05;6.35;;;;;;;2.04;56.80;99545.78;2366070;82;26057;-78
2021/01/16 14:01:06;;;;;;;5.00;4.50;;;;;;;1.99;56.91;99542.11;2360167;82;25756;-78
2021/01/16 14:04:39;;;;;;;6.20;5.05;;;;;;;1.94;57.00;99541.05;2362199;82;25742;-78
2021/01/16 14:08:16;;;;;;;6.55;5.00;;;;;;;1.89;57.12;99527.59;2362212;82;25881;-78
2021/01/16 14:11:44;;;;;;;5.87;5.22;;;;;;;1.86;57.25;99530.44;2384173;82;25736;-79
2021/01/16 14:15:07;;;;;;;7.67;5.53;;;;;;;1.82;57.31;99533.65;2374677;77;25978;-80
2021/01/16 14:18:39;;;;;;;8.48;5.97;;;;;;;1.76;57.40;99526.57;2448709;79;25954;-90
2021/01/16 14:22:13;;;;;;;10.40;6.47;;;;;;;1.72;57.46;99523.77;2420320;80;25708;-78
2021/01/16 14:25:41;;;;;;;11.68;7.12;;;;;;;1.69;57.53;99518.12;2422370;80;25766;-90
2021/01/16 14:29:11;;;;;;;11.30;7.70;;;;;;;1.65;57.62;99524.81;2401540;81;25819;-78
2021/01/16 14:32:33;;;;;;;8.03;6.17;;;;;;;1.60;57.76;99517.28;2405726;80;25843;-78
2021/01/16 14:36:41;;;;;;;10.13;7.20;;;;;;;1.57;57.89;99531.27;2404702;80;26250;-78
2021/01/16 14:40:19;;;;;;;12.60;6.67;;;;;;;1.52;57.91;99522.50;2453958;79;26648;-79
2021/01/16 14:43:41;;;;;;;11.50;7.12;;;;;;;1.50;58.03;99522.81;2412512;80;26869;-80
2021/01/16 14:47:40;;;;;;;12.23;7.60;;;;;;;1.48;58.08;99533.82;2453186;79;25432;-78
2021/01/16 14:51:13;;;;;;;7.78;6.80;;;;;;;1.45;58.18;99535.84;2451740;78;25960;-78
2021/01/16 14:55:02;;;;;;;8.68;7.20;;;;;;;1.41;58.24;99532.66;2470539;77;25786;-79
2021/01/16 14:58:40;;;;;;;11.63;7.60;;;;;;;1.39;58.29;99524.02;2422731;79;25766;-89
2021/01/16 15:07:18;;;;;;;;;;;;;;;;;;;;;
2021/01/16 15:22:36;;;;;;;15.53;7.53;;;;;;;1.23;58.70;99522.83;2228199;83;35023;-79
2021/01/16 15:26:16;;;;;;;12.90;8.30;;;;;;;1.18;58.69;99523.50;2198129;87;25647;-79
2021/01/16 15:33:51;;;;;;;9.33;7.40;;;;;;;1.16;58.71;99513.55;2227201;87;25909;-78
2021/01/16 15:37:28;;;;;;;10.95;7.20;;;;;;;1.15;58.70;99514.78;2208663;88;25675;-78
2021/01/16 15:41:12;;;;;;;12.33;7.77;;;;;;;1.19;58.77;99511.55;2585758;76;34957;-80
2021/01/16 15:44:33;;;;;;;14.80;8.65;;;;;;;1.15;58.78;99510.93;2550791;77;25484;-87
2021/01/16 15:48:00;;;;;;;13.70;7.30;;;;;;;1.15;58.84;99506.67;2457864;80;25770;-81
2021/01/16 15:51:43;;;;;;;9.60;6.72;;;;;;;1.15;58.87;99500.25;2506421;78;26235;-81
2021/01/16 15:55:14;;;;;;;10.72;7.83;;;;;;;1.16;58.83;99505.85;2501257;78;25525;-80
2021/01/16 15:58:42;;;;;;;10.38;7.50;;;;;;;1.14;58.88;99499.75;2439886;80;25668;-79
2021/01/16 16:02:17;;;;;;;13.53;7.50;;;;;;;1.14;58.84;99503.60;2419800;81;25345;-82
2021/01/16 16:05:49;;;;;;;13.38;8.75;;;;;;;1.14;58.86;99497.19;2441701;80;25353;-81
2021/01/16 16:09:13;;;;;;;10.38;7.58;;;;;;;1.14;58.86;99496.31;2440345;80;25666;-80
2021/01/16 16:12:34;;;;;;;14.53;7.83;;;;;;;1.13;58.88;99495.44;2441053;80;25911;-89
2021/01/16 16:16:00;;;;;;;11.00;7.30;;;;;;;1.13;58.90;99488.15;2440089;80;25703;-90
2021/01/16 16:19:22;;;;;;;14.18;8.30;;;;;;;1.14;58.88;99492.46;2442469;79;25664;-89
2021/01/16 16:22:44;;;;;;;10.60;7.50;;;;;;;1.13;58.86;99491.59;2438163;79;25593;-87
2021/01/16 16:26:12;;;;;;;11.95;7.95;;;;;;;1.13;58.79;99491.59;2435456;79;25780;-79
2021/01/16 16:29:33;;;;;;;16.52;9.80;;;;;;;1.12;58.75;99492.81;2438845;80;25663;-86
2021/01/16 16:32:54;;;;;;;14.78;8.65;;;;;;;1.11;58.71;99493.59;2438490;79;26295;-84
2021/01/16 16:36:16;;;;;;;16.95;9.00;;;;;;;1.09;58.69;99493.54;2434924;80;25649;-79
2021/01/16 16:39:51;;;;;;;15.20;8.15;;;;;;;1.07;58.67;99490.01;2427576;79;26260;-77
2021/01/16 16:43:16;;;;;;;14.90;7.83;;;;;;;1.04;58.66;99494.12;2425564;79;25930;-79
2021/01/16 16:46:37;;;;;;;9.85;7.58;;;;;;;1.03;58.67;99500.07;2427477;80;25970;-78
2021/01/16 16:49:59;;;;;;;14.93;7.85;;;;;;;1.01;58.68;99491.41;2429896;79;26221;-79
2021/01/16 16:53:41;;;;;;;14.80;8.00;;;;;;;0.99;58.72;99491.35;2505536;77;25889;-79
2021/01/16 16:57:11;;;;;;;11.97;7.20;;;;;;;0.97;58.73;99483.97;2460359;79;25969;-78
2021/01/16 17:00:45;;;;;;;12.43;8.25;;;;;;;0.94;58.77;99477.41;2485088;79;26131;-78
2021/01/16 17:04:13;;;;;;;10.45;7.65;;;;;;;0.93;58.81;99473.09;2474787;79;25722;-79
2021/01/16 17:07:39;;;;;;;15.20;7.83;;;;;;;0.92;58.87;99477.35;2486497;79;25610;-79
2021/01/16 17:11:03;;;;;;;23.42;8.10;;;;;;;0.93;58.94;99479.10;2484016;79;25986;-78
2021/01/16 17:14:41;;;;;;;10.95;7.67;;;;;;;0.92;59.00;99477.35;2476644;77;26286;-89
2021/01/16 17:18:16;;;;;;;11.20;6.47;;;;;;;0.92;59.06;99485.05;2417752;80;25724;-79
2021/01/16 17:21:57;;;;;;;10.18;7.35;;;;;;;0.94;59.10;99490.23;2373457;79;25870;-78
2021/01/16 17:25:43;;;;;;;;;;;;;;;0.95;59.08;99517.68;2404304;80;26160;-80
2021/01/16 17:29:44;;;;;;;12.18;6.40;;;;;;;0.95;58.97;99531.80;2273134;85;26150;-80
2021/01/16 17:33:15;;;;;;;6.67;5.45;;;;;;;0.94;58.88;99532.58;2265585;86;25778;-80
2021/01/16 17:36:37;;;;;;;8.30;6.80;;;;;;;0.96;58.70;99533.95;2269453;85;25790;-80
2021/01/16 17:40:10;;;;;;;8.75;6.08;;;;;;;0.96;58.59;99537.80;2272704;83;25829;-89
2021/01/16 17:43:48;;;;;;;6.25;5.65;;;;;;;0.96;58.48;99544.22;2181888;88;26718;-79
2021/01/16 17:47:14;;;;;;;10.20;6.45;;;;;;;0.94;58.44;99553.11;2199439;88;26417;-81
2021/01/16 17:50:37;;;;;;;8.20;5.75;;;;;;;0.93;58.36;99561.22;2193769;87;25956;-79
2021/01/16 17:54:08;;;;;;;9.33;6.53;;;;;;;0.93;58.31;99565.06;2343808;79;25774;-79
2021/01/16 17:57:34;;;;;;;9.33;7.15;;;;;;;0.91;58.24;99565.79;2523952;77;25729;-80
2021/01/16 18:01:16;;;;;;;9.03;6.85;;;;;;;0.91;58.14;99569.64;2478027;79;25873;-80
2021/01/16 18:04:38;;;;;;;8.10;5.45;;;;;;;0.89;58.08;99577.69;2481441;78;25852;-80
2021/01/16 18:08:12;;;;;;;7.75;6.03;;;;;;;0.89;58.00;99584.97;2481136;78;25655;-80
2021/01/16 18:11:52;;;;;;;8.38;5.53;;;;;;;0.87;57.88;99584.41;2447453;79;25715;-80
2021/01/16 18:15:51;;;;;;;10.30;7.70;;;;;;;0.91;57.84;99588.88;2573941;75;27733;-81
2021/01/16 18:19:25;;;;;;;7.40;6.65;;;;;;;1.00;57.86;99589.34;2506883;77;25732;-80
2021/01/16 18:22:46;;;;;;;8.68;6.47;;;;;;;1.00;57.63;99591.91;2516869;77;25734;-84
2021/01/16 18:26:08;;;;;;;6.45;5.78;;;;;;;0.96;57.53;99600.67;2505991;78;25713;-80
2021/01/16 18:29:30;;;;;;;8.30;6.50;;;;;;;0.90;57.48;99596.98;2504839;78;25745;-80
2021/01/16 18:33:09;;;;;;;8.75;6.83;;;;;;;0.86;57.34;99609.60;2506105;78;26317;-80
2021/01/16 18:36:30;;;;;;;6.90;5.80;;;;;;;0.82;57.26;99611.14;2507023;78;25646;-81
2021/01/16 18:39:52;;;;;;;10.10;7.20;;;;;;;0.77;57.23;99615.14;2498212;78;25822;-83
2021/01/16 18:43:19;;;;;;;11.63;6.97;;;;;;;0.75;57.30;99614.20;2491122;78;25581;-80
2021/01/16 18:46:45;;;;;;;10.18;6.90;;;;;;;0.73;57.32;99623.50;2493091;78;25716;-80
2021/01/16 18:50:16;;;;;;;15.30;7.47;;;;;;;0.72;57.29;99631.13;2492618;78;25985;-80
2021/01/16 18:53:44;;;;;;;13.65;7.87;;;;;;;0.69;57.17;99636.58;2503672;77;25680;-80
2021/01/16 18:57:13;;;;;;;9.98;7.10;;;;;;;0.67;57.07;99630.88;2515386;76;25788;-87
2021/01/16 19:00:37;;;;;;;11.63;7.45;;;;;;;0.63;57.01;99628.97;2501341;76;25797;-84
2021/01/16 19:04:40;;;;;;;10.70;7.60;;;;;;;0.61;56.91;99639.16;2453954;78;25947;-85
2021/01/16 19:08:13;;;;;;;13.83;8.00;;;;;;;0.57;56.81;99626.95;2440656;80;25668;-84
2021/01/16 19:11:47;;;;;;;12.88;7.37;;;;;;;0.54;56.74;99639.66;2374350;81;26057;-87
2021/01/16 19:15:09;;;;;;;13.55;7.20;;;;;;;0.53;56.77;99643.41;2396135;80;25650;-86
2021/01/16 19:18:37;;;;;;;12.60;7.78;;;;;;;0.50;56.72;99652.22;2419489;80;25781;-78
2021/01/16 19:21:59;;;;;;;12.93;8.55;;;;;;;0.47;56.73;99647.81;2497148;79;25748;-77
2021/01/16 19:25:40;;;;;;;;;;;;;;;;;;;;;
2021/01/16 19:29:24;;;;;;;10.18;7.97;;;;;;;0.42;56.72;99657.84;2474300;77;26500;-84
2021/01/16 19:32:46;;;;;;;13.00;9.10;;;;;;;0.40;56.72;99670.09;2480309;79;25667;-82
2021/01/16 19:36:15;;;;;;;13.10;7.75;;;;;;;0.37;56.70;99664.42;2426257;80;26062;-82
2021/01/16 19:39:49;;;;;;;9.95;6.65;;;;;;;0.34;56.66;99682.58;2472057;79;25809;-84
2021/01/16 19:43:11;;;;;;;16.48;8.90;;;;;;;0.32;56.55;99681.64;2426593;80;25716;-82
2021/01/16 19:46:32;;;;;;;14.93;9.60;;;;;;;0.28;56.46;99676.75;2478969;79;25682;-81
2021/01/16 19:49:54;;;;;;;11.43;8.53;;;;;;;0.25;56.50;99686.84;2484899;79;25771;-81
2021/01/16 19:53:16;;;;;;;18.07;11.35;;;;;;;0.21;56.48;99686.20;2401683;80;25997;-83
2021/01/16 19:56:48;;;;;;;17.23;9.33;;;;;;;0.19;56.41;99693.80;2478073;79;25722;-86
2021/01/16 20:00:12;;;;;;;14.05;8.53;;;;;;;0.15;56.33;99699.97;2469393;79;25920;-77
2021/01/16 20:03:44;;;;;;;;;;;;;;;;;;;;;
2021/01/16 20:07:08;;;;;;;16.37;10.05;;;;;;;0.09;56.34;99706.03;2493973;79;25610;-78
2021/01/16 20:10:29;;;;;;;16.05;10.60;;;;;;;0.07;56.29;99724.28;2493056;79;25865;-79
2021/01/16 20:13:51;;;;;;;17.52;11.18;;;;;;;0.05;56.19;99719.48;2487854;79;26331;-77
2021/01/16 20:17:12;;;;;;;17.25;11.15;;;;;;;0.01;56.08;99723.97;2494407;78;25748;-78
2021/01/16 20:20:40;;;;;;;19.82;10.45;;;;;;;-0.04;56.00;99739.95;2497473;79;25723;-78
2021/01/16 20:24:02;;;;;;;14.63;9.75;;;;;;;-0.08;55.93;99736.73;2497284;79;25770;-77
2021/01/16 20:27:43;;;;;;;17.80;11.25;;;;;;;-0.13;55.82;99737.30;2492442;77;25630;-78
2021/01/16 20:31:08;;;;;;;18.82;10.78;;;;;;;-0.18;55.79;99743.84;2492468;78;26411;-78
2021/01/16 20:34:30;;;;;;;18.60;11.15;;;;;;;-0.21;55.82;99744.94;2500623;79;26308;-85
2021/01/16 20:37:51;;;;;;;16.32;10.38;;;;;;;-0.25;55.73;99747.73;2442110;79;25629;-78
2021/01/16 20:41:14;;;;;;;20.15;11.48;;;;;;;-0.28;55.75;99747.16;2443901;79;26337;-77
2021/01/16 20:44:36;;;;;;;16.23;10.88;;;;;;;-0.31;55.76;99758.91;2440053;80;25689;-87
2021/01/16 20:47:57;;;;;;;20.88;11.28;;;;;;;-0.34;55.71;99761.29;2438723;79;25673;-78
2021/01/16 20:51:19;;;;;;;17.10;11.53;;;;;;;-0.37;55.67;99764.59;2420708;80;26365;-78
2021/01/16 20:54:44;;;;;;;21.35;11.97;;;;;;;-0.39;55.70;99767.44;2516390;77;25874;-78
2021/01/16 20:58:15;;;;;;;23.25;12.40;;;;;;;-0.42;55.67;99767.67;2487237;77;26030;-77
2021/01/16 21:06:36;;;;;;;;;;;;;;;;;;;;;
2021/01/16 21:14:51;;;;;;;23.05;11.55;;;;;;;-0.51;55.63;99784.28;2342713;83;25961;-79
2021/01/16 21:29:36;;;;;;;21.03;12.30;;;;;;;-0.59;55.31;99799.98;2529851;74;35051;-80
2021/01/16 21:33:48;;;;;;;;;;;;;;;;;;;;;
2021/01/16 21:37:51;;;;;;;23.00;12.23;;;;;;;-0.69;55.17;99810.47;2424349;77;25944;-81
2021/01/16 21:50:02;;;;;;;;;;;;;;;;;;;;;
2021/01/16 22:04:51;;;;;;;21.10;13.90;;;;;;;-0.84;54.85;99847.17;2467281;78;34559;-78
2021/01/16 22:08:48;;;;;;;22.13;13.25;;;;;;;-0.92;54.84;99840.69;2332404;83;25658;-78
2021/01/16 22:12:10;;;;;;;24.32;13.00;;;;;;;-0.96;54.80;99841.30;2329887;84;26206;-79
2021/01/16 22:15:49;;;;;;;31.12;15.48;;;;;;;-0.97;54.74;99847.22;2335328;83;25686;-79
2021/01/16 22:19:20;;;;;;;23.20;13.78;;;;;;;-0.99;54.71;99843.67;2315008;84;26069;-79
2021/01/16 22:34:01;;;;;;;;;;;;;;;;;;;;;
2021/01/16 22:37:33;;;;;;;27.82;13.85;;;;;;;-1.13;54.54;99863.30;2374706;81;25583;-77
2021/01/16 22:41:19;;;;;;;28.42;14.63;;;;;;;-1.15;54.50;99862.70;2398554;81;25649;-79
2021/01/16 22:44:44;;;;;;;23.92;14.00;;;;;;;-1.19;54.51;99865.08;2433594;78;26252;-87
2021/01/16 22:48:16;;;;;;;24.45;13.62;;;;;;;-1.20;54.47;99865.88;2452663;78;25762;-79
2021/01/16 22:51:47;;;;;;;22.87;13.03;;;;;;;-1.21;54.52;99870.91;2433145;80;25617;-90
2021/01/16 22:55:15;;;;;;;23.10;12.82;;;;;;;-1.21;54.58;99874.74;2429675;79;25884;-90
2021/01/16 22:58:46;;;;;;;27.45;14.18;;;;;;;-1.21;54.61;99876.02;2434764;80;25595;-80
2021/01/16 23:02:09;;;;;;;23.57;13.15;;;;;;;-1.23;54.59;99873.35;2444424;78;25976;-80
2021/01/16 23:05:33;;;;;;;25.92;12.85;;;;;;;-1.24;54.55;99874.55;2375246;81;25742;-83
2021/01/16 23:09:52;;;;;;;24.35;14.70;;;;;;;-1.26;54.57;99879.55;2383177;82;25790;-81
2021/01/16 23:35:51;;;;;;;19.70;12.60;;;;;;;-1.45;54.21;99897.11;2414739;75;34734;-79
2021/01/16 23:39:34;;;;;;;29.35;14.53;;;;;;;-1.54;54.18;99903.79;2343662;81;25861;-80
2021/01/16 23:42:56;;;;;;;23.98;13.83;;;;;;;-1.57;54.16;99902.31;2346679;82;25865;-80
2021/01/16 23:46:21;;;;;;;23.02;11.73;;;;;;;-1.58;54.11;99915.89;2336143;82;26135;-87
2021/01/16 23:49:49;;;;;;;25.57;13.50;;;;;;;-1.61;54.00;99916.97;2365806;81;25762;-80
2021/01/16 23:53:25;;;;;;;26.10;14.80;;;;;;;-1.62;53.99;99920.69;2367024;81;26063;-79
2021/01/16 23:57:19;;;;;;;18.60;12.40;;;;;;;-1.64;53.95;99924.44;2335536;81;25641;-79
